Time;durP1;ratioP1;P1;durP2;ratioP2;P2;SDS_P1;SDS_P2;PMS_P1;PMS_P2;Temp;Humidity;BMP_temperature;BMP_pressure;BME280_temperature;BME280_humidity;BME280_pressure;Samples;Min_cycle;Max_cycle;Signal;HPM_P1;HPM_P2
2021/07/21 00:00:51;;;;;;;15.75;11.02;;;;;;;20.12;100.00;96642.38;5045547;28;20531;-55
2021/07/21 00:03:20;;;;;;;16.55;11.52;;;;;;;20.25;100.00;96641.59;5043945;28;20756;-55
2021/07/21 00:05:49;;;;;;;22.48;11.43;;;;;;;19.82;100.00;96644.50;5039181;28;20071;-51
2021/07/21 00:08:18;;;;;;;16.35;11.55;;;;;;;19.89;100.00;96640.03;5041536;28;20096;-56
2021/07/21 00:10:49;;;;;;;14.93;11.00;;;;;;;20.09;100.00;96641.94;5043100;28;20254;-56
2021/07/21 00:13:32;;;;;;;17.52;11.55;;;;;;;19.78;100.00;96650.44;5043670;28;20509;-50
2021/07/21 00:16:10;;;;;;;16.48;12.02;;;;;;;19.85;100.00;96640.59;5040643;28;20080;-55
2021/07/21 00:18:47;;;;;;;19.30;11.80;;;;;;;20.20;100.00;96643.22;5043859;28;20080;-52
2021/07/21 00:21:17;;;;;;;17.88;12.25;;;;;;;19.72;100.00;96643.19;5036984;28;20072;-52
2021/07/21 00:23:45;;;;;;;18.60;11.45;;;;;;;19.99;100.00;96642.31;5043497;28;20071;-54
2021/07/21 00:26:14;;;;;;;18.23;11.85;;;;;;;20.60;100.00;96636.16;5045031;28;20072;-52
2021/07/21 00:28:42;;;;;;;18.33;12.40;;;;;;;19.96;100.00;96636.53;5046836;28;20072;-54
2021/07/21 00:31:15;;;;;;;18.48;12.60;;;;;;;19.61;100.00;96642.72;5042608;28;20182;-56
2021/07/21 00:33:45;;;;;;;15.85;11.50;;;;;;;19.92;100.00;96644.13;5042748;28;20075;-51
2021/07/21 00:36:13;;;;;;;17.67;12.38;;;;;;;20.25;100.00;96638.09;5042744;28;20057;-56
2021/07/21 00:38:41;;;;;;;17.45;11.95;;;;;;;20.29;100.00;96640.16;5044650;28;20076;-55
2021/07/21 00:41:10;;;;;;;16.70;11.38;;;;;;;19.96;100.00;96645.41;5048692;28;20106;-52
2021/07/21 00:43:38;;;;;;;16.33;12.20;;;;;;;19.91;100.00;96645.97;5045462;28;20065;-53
2021/07/21 00:46:07;;;;;;;15.50;11.07;;;;;;;19.78;100.00;96650.44;5045799;28;20034;-51
2021/07/21 00:48:36;;;;;;;15.85;11.88;;;;;;;19.34;100.00;96647.06;5047454;28;20068;-52
2021/07/21 00:51:05;;;;;;;16.40;11.30;;;;;;;19.73;100.00;96647.53;5042510;28;20068;-54
2021/07/21 00:53:34;;;;;;;17.17;11.18;;;;;;;19.23;100.00;96650.25;5039185;28;20084;-52
2021/07/21 00:56:02;;;;;;;16.98;11.50;;;;;;;18.92;100.00;96646.09;5044585;28;20073;-53
2021/07/21 00:58:31;;;;;;;14.95;11.80;;;;;;;18.88;100.00;96644.84;5047770;28;20095;-57
2021/07/21 01:00:59;;;;;;;18.13;11.68;;;;;;;18.96;100.00;96636.72;5048841;28;20064;-58
2021/07/21 01:03:27;;;;;;;17.02;11.63;;;;;;;18.84;100.00;96656.13;5043798;28;20074;-50
2021/07/21 01:05:59;;;;;;;16.58;11.82;;;;;;;18.88;100.00;96644.00;5044936;28;20061;-53
2021/07/21 01:08:28;;;;;;;16.95;12.15;;;;;;;18.98;100.00;96644.50;5041782;28;20074;-54
2021/07/21 01:11:03;;;;;;;17.23;13.10;;;;;;;18.91;100.00;96644.47;5046696;28;20541;-54
2021/07/21 01:13:38;;;;;;;15.50;10.93;;;;;;;19.09;100.00;96645.84;5048464;28;20151;-52
2021/07/21 01:16:09;;;;;;;16.17;10.43;;;;;;;19.10;100.00;96647.50;5045496;28;20068;-54
2021/07/21 01:18:39;;;;;;;15.88;11.00;;;;;;;19.53;100.00;96650.06;5040752;28;20080;-56
2021/07/21 01:21:41;;;;;;;14.97;10.93;;;;;;;19.46;100.00;96644.66;5048288;28;20068;-51
2021/07/21 01:24:19;;;;;;;18.02;12.90;;;;;;;19.32;100.00;96637.59;5044558;28;20484;-52
2021/07/21 01:27:11;;;;;;;17.88;11.18;;;;;;;19.30;100.00;96636.94;5044419;28;20068;-49
2021/07/21 01:29:41;;;;;;;18.73;11.65;;;;;;;19.06;100.00;96641.69;5042670;28;20076;-57
2021/07/21 01:32:09;;;;;;;19.55;12.65;;;;;;;19.40;100.00;96642.78;5045157;28;20500;-52
2021/07/21 01:34:39;;;;;;;20.45;12.25;;;;;;;19.28;100.00;96639.00;5042153;28;20064;-56
2021/07/21 01:37:08;;;;;;;20.05;13.15;;;;;;;19.29;100.00;96636.13;5042919;28;20056;-57
2021/07/21 01:39:40;;;;;;;16.70;12.55;;;;;;;18.92;100.00;96640.75;5045938;28;20069;-54
2021/07/21 01:42:14;;;;;;;16.27;11.75;;;;;;;18.83;100.00;96643.78;5046615;28;20072;-56
2021/07/21 01:44:45;;;;;;;14.07;11.23;;;;;;;19.01;100.00;96640.63;5044146;28;20069;-55
2021/07/21 01:47:15;;;;;;;15.30;10.60;;;;;;;19.45;100.00;96635.00;5048600;28;20088;-51
2021/07/21 01:49:44;;;;;;;16.33;10.35;;;;;;;18.68;100.00;96633.94;5042102;28;20371;-54
2021/07/21 01:52:15;;;;;;;13.82;9.35;;;;;;;18.80;100.00;96642.31;5047930;28;20077;-55
2021/07/21 01:54:45;;;;;;;14.55;9.88;;;;;;;18.87;100.00;96639.69;5043791;28;20073;-52
2021/07/21 01:57:15;;;;;;;14.45;9.63;;;;;;;18.41;100.00;96643.53;5044777;28;20072;-52
2021/07/21 01:59:44;;;;;;;15.77;9.73;;;;;;;18.03;100.00;96649.06;5043209;28;20440;-49
2021/07/21 02:02:12;;;;;;;17.88;11.88;;;;;;;19.05;100.00;96637.38;5041393;28;20081;-55
2021/07/21 02:04:42;;;;;;;16.20;10.73;;;;;;;18.66;100.00;96638.66;5044170;28;20083;-52
2021/07/21 02:07:11;;;;;;;18.08;11.90;;;;;;;18.54;100.00;96636.69;5045454;28;20065;-56
2021/07/21 02:09:40;;;;;;;19.60;11.80;;;;;;;19.13;100.00;96637.25;5044116;28;20059;-52
2021/07/21 02:12:09;;;;;;;16.27;11.40;;;;;;;19.26;100.00;96625.00;5042830;28;20056;-55
2021/07/21 02:14:41;;;;;;;17.23;11.57;;;;;;;19.13;100.00;96631.91;5042221;28;20636;-51
2021/07/21 02:17:10;;;;;;;16.13;11.15;;;;;;;18.87;100.00;96635.19;5038240;28;20459;-53
2021/07/21 02:19:39;;;;;;;16.65;11.00;;;;;;;19.29;100.00;96630.78;5042085;28;20164;-54
2021/07/21 02:22:08;;;;;;;17.85;11.32;;;;;;;18.87;100.00;96627.16;5035642;28;20037;-57
2021/07/21 02:24:37;;;;;;;16.23;10.88;;;;;;;19.36;100.00;96630.81;5041542;28;20080;-54
2021/07/21 02:27:05;;;;;;;17.52;10.82;;;;;;;19.54;100.00;96639.16;5041307;28;20069;-55
2021/07/21 02:29:34;;;;;;;18.17;11.77;;;;;;;18.82;100.00;96632.25;5036692;28;20072;-53
2021/07/21 02:32:09;;;;;;;17.35;11.40;;;;;;;19.19;100.00;96640.97;5042389;28;20091;-52
2021/07/21 02:34:38;;;;;;;17.92;11.90;;;;;;;19.01;100.00;96628.09;5039627;28;20061;-57
2021/07/21 02:37:06;;;;;;;15.40;11.30;;;;;;;18.84;100.00;96640.09;5038864;28;20527;-56
2021/07/21 02:39:35;;;;;;;17.92;12.70;;;;;;;19.01;100.00;96636.13;5037485;28;20523;-56
2021/07/21 02:42:03;;;;;;;21.33;11.15;;;;;;;18.88;100.00;96644.84;5044953;28;20072;-55
2021/07/21 02:44:32;;;;;;;17.73;11.40;;;;;;;18.57;100.00;96645.13;5040236;28;20420;-57
2021/07/21 02:47:00;;;;;;;15.13;11.27;;;;;;;18.86;100.00;96641.53;5041957;28;20101;-57
2021/07/21 02:49:30;;;;;;;16.48;11.23;;;;;;;19.22;100.00;96645.94;5037530;28;20095;-55
2021/07/21 02:52:03;;;;;;;22.63;11.40;;;;;;;19.18;100.00;96647.34;5037716;28;20646;-56
2021/07/21 02:54:35;;;;;;;22.20;11.23;;;;;;;19.21;100.00;96647.78;5040212;28;20606;-54
2021/07/21 02:57:10;;;;;;;18.65;11.60;;;;;;;18.81;100.00;96638.59;5035991;28;20087;-54
2021/07/21 02:59:42;;;;;;;17.92;10.35;;;;;;;18.65;100.00;96646.84;5042863;28;20076;-52
2021/07/21 03:02:12;;;;;;;16.27;10.77;;;;;;;19.12;100.00;96634.75;5039123;28;20068;-55
2021/07/21 03:04:43;;;;;;;17.98;11.18;;;;;;;18.40;100.00;96641.03;5032884;28;20077;-54
2021/07/21 03:07:11;;;;;;;;;;;;;;;18.50;100.00;96639.72;5037768;28;20068;-57
2021/07/21 03:09:41;;;;;;;19.15;10.75;;;;;;;19.05;100.00;96644.56;5034827;28;19968;-56
2021/07/21 03:12:13;;;;;;;17.15;11.25;;;;;;;19.22;100.00;96643.25;5038311;28;20084;-57
2021/07/21 03:14:42;;;;;;;15.45;10.93;;;;;;;19.28;100.00;96644.34;5040002;28;20070;-56
2021/07/21 03:17:14;;;;;;;13.30;9.60;;;;;;;18.97;100.00;96649.03;5044509;28;20081;-53
2021/07/21 03:19:45;;;;;;;14.93;9.70;;;;;;;18.53;100.00;96651.88;5039486;28;20075;-57
2021/07/21 03:22:14;;;;;;;15.90;10.70;;;;;;;18.70;100.00;96642.59;5038275;28;20076;-53
2021/07/21 03:24:45;;;;;;;18.08;11.40;;;;;;;18.57;100.00;96647.81;5040235;28;20068;-53
2021/07/21 03:27:15;;;;;;;17.40;10.35;;;;;;;18.79;100.00;96645.16;5040002;28;20065;-55
2021/07/21 03:29:46;;;;;;;17.77;12.27;;;;;;;18.54;100.00;96661.53;5040640;28;20064;-56
2021/07/21 03:32:14;;;;;;;19.50;12.05;;;;;;;18.85;100.00;96650.56;5035149;28;20077;-56
2021/07/21 03:34:46;;;;;;;14.98;10.05;;;;;;;18.17;100.00;96659.88;5038859;28;20080;-55
2021/07/21 03:37:15;;;;;;;22.55;10.77;;;;;;;17.83;100.00;96666.66;5041497;28;20060;-55
2021/07/21 03:39:46;;;;;;;17.40;11.13;;;;;;;18.28;100.00;96664.75;5040430;28;20069;-55
2021/07/21 03:42:16;;;;;;;18.70;10.75;;;;;;;18.41;100.00;96666.72;5039432;28;20498;-57
2021/07/21 03:44:45;;;;;;;21.63;11.68;;;;;;;18.46;100.00;96664.34;5039780;28;20064;-56
2021/07/21 03:47:14;;;;;;;18.50;10.70;;;;;;;17.94;100.00;96679.53;5041556;28;20069;-57
2021/07/21 03:49:45;;;;;;;19.00;11.98;;;;;;;18.07;100.00;96676.22;5044907;28;20095;-57
2021/07/21 03:52:14;;;;;;;17.30;11.35;;;;;;;18.83;100.00;96665.16;5040706;28;20064;-55
2021/07/21 03:54:43;;;;;;;21.45;12.00;;;;;;;18.50;100.00;96662.94;5039616;28;20715;-58
2021/07/21 03:57:18;;;;;;;19.40;12.52;;;;;;;18.81;100.00;96675.19;5023687;28;20061;-58
2021/07/21 03:59:46;;;;;;;20.15;12.27;;;;;;;18.78;100.00;96678.25;5039980;28;20094;-57
2021/07/21 04:02:16;;;;;;;21.63;13.23;;;;;;;19.30;100.00;96680.53;5041834;28;20088;-57
2021/07/21 04:04:48;;;;;;;18.50;12.57;;;;;;;19.86;100.00;96680.56;5039054;28;20311;-56
2021/07/21 04:07:18;;;;;;;17.30;11.35;;;;;;;20.36;100.00;96675.81;5032285;28;20053;-54
2021/07/21 04:09:48;;;;;;;17.53;11.67;;;;;;;20.03;100.00;96689.09;5041036;28;20069;-56
2021/07/21 04:12:17;;;;;;;21.77;10.55;;;;;;;21.01;100.00;96684.25;5038761;28;20471;-56
2021/07/21 04:14:48;;;;;;;16.67;10.07;;;;;;;20.97;100.00;96687.56;5031563;28;20550;-54
2021/07/21 04:17:19;;;;;;;14.38;9.98;;;;;;;22.19;100.00;96688.91;5041544;28;20542;-54
2021/07/21 04:19:49;;;;;;;14.10;9.90;;;;;;;22.57;93.79;96697.00;5040685;28;20182;-53
2021/07/21 04:22:20;;;;;;;11.68;9.25;;;;;;;22.06;100.00;96697.81;5037627;28;20065;-56
2021/07/21 04:24:49;;;;;;;15.27;10.15;;;;;;;22.67;90.52;96693.84;5039247;28;20073;-57
2021/07/21 04:27:18;;;;;;;13.25;10.23;;;;;;;23.63;84.05;96696.28;5042000;28;20061;-53
2021/07/21 04:30:06;;;;;;;13.10;8.73;;;;;;;23.12;80.54;96697.31;5038181;28;20044;-55
2021/07/21 04:32:35;;;;;;;15.70;9.02;;;;;;;23.70;75.45;96690.88;5036899;28;20081;-56
2021/07/21 04:35:08;;;;;;;12.90;9.45;;;;;;;24.23;71.71;96687.63;5042711;28;20092;-55
2021/07/21 04:37:37;;;;;;;12.05;8.63;;;;;;;23.73;77.40;96695.00;5040055;28;20453;-55
2021/07/21 04:40:07;;;;;;;12.38;9.70;;;;;;;24.66;69.77;96680.47;5038342;28;20057;-54
2021/07/21 04:42:35;;;;;;;12.13;9.90;;;;;;;24.44;69.26;96688.25;5037202;28;20069;-56
2021/07/21 04:45:04;;;;;;;13.70;10.00;;;;;;;23.15;81.28;96696.06;5037167;28;20073;-57
2021/07/21 04:47:34;;;;;;;14.48;10.50;;;;;;;24.14;74.62;96697.06;5040899;28;20090;-51
2021/07/21 04:50:06;;;;;;;16.83;10.55;;;;;;;24.30;73.52;96703.72;5038540;28;20092;-53
2021/07/21 04:52:34;;;;;;;15.00;11.43;;;;;;;24.49;73.23;96699.97;5037539;28;20061;-54
2021/07/21 04:55:03;;;;;;;17.52;10.57;;;;;;;26.97;58.13;96693.63;5033602;28;20489;-54
2021/07/21 04:57:31;;;;;;;15.45;10.88;;;;;;;26.87;58.32;96696.97;5034263;28;20060;-55
2021/07/21 05:00:00;;;;;;;14.73;11.40;;;;;;;28.30;49.83;96693.03;5032451;28;20065;-55
2021/07/21 05:02:29;;;;;;;15.98;10.85;;;;;;;29.05;47.23;96694.22;5035973;28;20088;-56
2021/07/21 05:04:57;;;;;;;15.30;10.80;;;;;;;29.90;44.21;96699.81;5043828;28;20076;-52
2021/07/21 05:07:27;;;;;;;13.55;10.48;;;;;;;30.10;43.22;96707.28;5033976;28;20076;-57
2021/07/21 05:09:55;;;;;;;16.85;10.90;;;;;;;30.57;42.05;96710.00;5039299;28;20066;-55
2021/07/21 05:12:24;;;;;;;14.35;10.70;;;;;;;30.64;41.58;96715.22;5039495;28;20488;-53
2021/07/21 05:14:52;;;;;;;12.48;10.20;;;;;;;30.36;42.12;96713.72;5040005;28;20065;-56
2021/07/21 05:17:20;;;;;;;19.10;10.68;;;;;;;29.69;44.06;96718.69;5042992;28;20475;-55
2021/07/21 05:19:49;;;;;;;13.93;10.43;;;;;;;29.87;44.48;96722.94;5042365;28;20089;-56
2021/07/21 05:22:17;;;;;;;14.82;9.82;;;;;;;30.46;43.46;96721.94;5044227;28;20068;-54
2021/07/21 05:24:47;;;;;;;13.48;10.95;;;;;;;30.67;42.58;96718.22;5033803;28;20068;-53
2021/07/21 05:27:15;;;;;;;15.20;11.02;;;;;;;30.24;43.83;96720.19;5039401;28;20084;-56
2021/07/21 05:29:44;;;;;;;16.95;11.60;;;;;;;29.81;44.56;96710.38;5042508;28;20064;-57
2021/07/21 05:32:12;;;;;;;15.98;11.63;;;;;;;30.51;43.97;96711.88;5038116;28;20081;-53
2021/07/21 05:34:41;;;;;;;14.85;12.32;;;;;;;30.14;44.56;96717.38;5045350;28;20518;-56
2021/07/21 05:37:10;;;;;;;16.60;11.15;;;;;;;30.33;44.27;96725.13;5042147;28;20589;-54
2021/07/21 05:39:38;;;;;;;16.48;12.00;;;;;;;29.84;46.45;96731.63;5042937;28;20072;-55
2021/07/21 05:42:08;;;;;;;13.45;11.30;;;;;;;28.98;49.58;96726.97;5041528;28;20080;-58
2021/07/21 05:44:36;;;;;;;14.68;11.73;;;;;;;29.60;47.96;96735.78;5046343;28;20109;-57
2021/07/21 05:47:05;;;;;;;16.63;11.82;;;;;;;28.64;51.71;96729.03;5044955;28;20088;-57
2021/07/21 05:49:33;;;;;;;17.10;11.55;;;;;;;29.09;50.55;96728.75;5042161;28;20071;-55
2021/07/21 05:52:02;;;;;;;15.52;11.15;;;;;;;29.33;50.46;96728.44;5038605;28;20068;-57
2021/07/21 05:54:34;;;;;;;13.65;10.90;;;;;;;29.65;50.15;96733.91;5045282;28;20079;-56
2021/07/21 05:57:02;;;;;;;17.67;11.77;;;;;;;29.59;49.12;96737.66;5038926;28;20502;-55
2021/07/21 05:59:32;;;;;;;17.30;11.65;;;;;;;29.53;50.72;96728.63;5033348;28;20085;-56
2021/07/21 06:02:00;;;;;;;18.10;14.23;;;;;;;27.66;56.81;96728.69;5047996;28;20113;-57
2021/07/21 06:04:29;;;;;;;18.60;13.93;;;;;;;26.83;61.38;96741.00;5044768;28;20538;-57
2021/07/21 06:06:57;;;;;;;20.02;13.55;;;;;;;26.48;64.73;96742.75;5044750;28;20072;-55
2021/07/21 06:09:26;;;;;;;18.35;13.45;;;;;;;26.44;70.02;96746.13;5034910;28;20072;-54
2021/07/21 06:11:54;;;;;;;17.92;13.98;;;;;;;26.73;68.92;96750.53;5044428;28;20091;-55
2021/07/21 06:14:22;;;;;;;19.27;13.80;;;;;;;26.43;75.89;96749.91;5029700;28;20085;-57
2021/07/21 06:16:53;;;;;;;20.33;14.90;;;;;;;26.75;72.81;96753.84;5044352;28;20463;-53
2021/07/21 06:19:21;;;;;;;;;;;;;;;26.86;71.98;96760.28;5044530;28;20075;-52
2021/07/21 06:21:50;;;;;;;20.67;13.27;;;;;;;26.77;74.44;96758.19;5031729;28;19960;-57
2021/07/21 06:24:22;;;;;;;20.10;13.93;;;;;;;27.08;73.09;96763.16;5039057;28;20069;-56
2021/07/21 06:26:51;;;;;;;20.02;14.50;;;;;;;26.56;79.83;96759.66;5044449;28;20656;-54
2021/07/21 06:29:19;;;;;;;20.13;14.70;;;;;;;26.48;76.20;96758.16;5037501;28;20077;-54
2021/07/21 06:31:48;;;;;;;22.63;14.00;;;;;;;26.34;76.80;96762.16;5042683;28;20080;-57
2021/07/21 06:34:17;;;;;;;19.58;14.40;;;;;;;26.50;75.08;96764.16;5040258;28;20535;-57
2021/07/21 06:36:46;;;;;;;18.15;13.88;;;;;;;26.42;77.21;96767.19;5040416;28;20483;-55
2021/07/21 06:39:14;;;;;;;21.35;14.23;;;;;;;26.61;75.70;96768.72;5042833;28;20095;-53
2021/07/21 06:41:42;;;;;;;19.75;13.43;;;;;;;26.70;72.86;96770.00;5040493;28;20067;-56
2021/07/21 06:44:11;;;;;;;21.58;14.85;;;;;;;26.50;76.43;96775.78;5045601;28;20094;-54
2021/07/21 06:46:40;;;;;;;20.50;14.43;;;;;;;27.07;72.98;96775.03;5041088;28;20049;-55
2021/07/21 06:49:09;;;;;;;22.58;14.13;;;;;;;27.38;70.96;96779.16;5044249;28;20115;-55
2021/07/21 06:51:39;;;;;;;20.25;14.70;;;;;;;27.08;73.36;96771.28;5040656;28;20088;-54
2021/07/21 06:54:07;;;;;;;25.83;15.55;;;;;;;27.54;71.82;96772.13;5037756;28;20068;-54
2021/07/21 06:56:35;;;;;;;21.27;14.65;;;;;;;27.27;72.49;96776.50;5030867;28;20077;-54
2021/07/21 06:59:07;;;;;;;20.80;14.95;;;;;;;27.69;66.01;96779.69;5045205;28;20080;-54
2021/07/21 07:01:35;;;;;;;23.20;15.18;;;;;;;27.58;67.51;96780.56;5039362;28;20072;-54
2021/07/21 07:04:05;;;;;;;21.27;14.70;;;;;;;28.00;69.61;96778.31;5034747;28;20073;-56
2021/07/21 07:06:34;;;;;;;19.60;14.88;;;;;;;27.51;69.87;96780.72;5040244;28;20069;-50
2021/07/21 07:09:04;;;;;;;21.20;15.27;;;;;;;26.78;71.85;96792.31;5043836;28;20075;-55
2021/07/21 07:11:33;;;;;;;21.35;15.02;;;;;;;28.35;65.08;96786.13;5039724;28;20119;-57
2021/07/21 07:14:01;;;;;;;23.75;15.38;;;;;;;27.26;73.59;96796.53;5047070;28;20080;-53
2021/07/21 07:16:30;;;;;;;22.05;15.27;;;;;;;28.07;64.38;96789.78;5041266;28;20075;-55
2021/07/21 07:18:58;;;;;;;21.65;15.00;;;;;;;28.16;62.97;96792.94;5034067;28;20103;-53
2021/07/21 07:21:45;;;;;;;22.27;14.80;;;;;;;28.44;65.15;96792.00;5040252;28;20060;-57
2021/07/21 07:24:15;;;;;;;21.13;15.43;;;;;;;28.04;65.85;96793.00;5038411;28;20065;-56
2021/07/21 07:26:43;;;;;;;19.48;14.57;;;;;;;28.55;61.95;96801.09;5040876;28;20068;-57
2021/07/21 07:29:12;;;;;;;22.17;15.68;;;;;;;28.98;56.98;96796.75;5038667;28;20077;-55
2021/07/21 07:31:41;;;;;;;22.63;14.25;;;;;;;29.39;56.18;96792.63;5036515;28;20069;-53
2021/07/21 07:34:10;;;;;;;20.40;14.05;;;;;;;28.82;62.66;96793.84;5038350;28;20057;-57
2021/07/21 07:36:38;;;;;;;20.55;15.18;;;;;;;27.89;61.63;96798.19;5038566;28;20061;-54
2021/07/21 07:39:08;;;;;;;19.80;14.02;;;;;;;28.75;56.02;96792.41;5036953;28;20065;-56
2021/07/21 07:41:40;;;;;;;18.58;13.93;;;;;;;29.18;55.67;96801.63;5036333;28;20073;-57
2021/07/21 07:44:09;;;;;;;20.48;14.32;;;;;;;28.96;56.82;96791.56;5045107;28;20083;-57
2021/07/21 07:46:38;;;;;;;21.73;14.95;;;;;;;29.16;57.15;96793.72;5036329;28;20071;-57
2021/07/21 07:49:07;;;;;;;16.70;12.75;;;;;;;28.77;52.84;96793.81;5034799;28;20061;-52
2021/07/21 07:51:36;;;;;;;20.48;13.35;;;;;;;27.42;52.86;96787.59;5037080;28;20065;-57
2021/07/21 07:54:05;;;;;;;17.33;11.82;;;;;;;27.78;52.54;96788.25;5042639;28;20080;-57
2021/07/21 07:56:34;;;;;;;16.60;11.55;;;;;;;28.68;48.70;96792.59;5036317;28;20080;-56
2021/07/21 07:59:04;;;;;;;18.60;11.80;;;;;;;28.50;50.20;96785.56;5040893;28;20724;-57
2021/07/21 08:01:33;;;;;;;17.52;11.77;;;;;;;28.68;48.78;96780.91;5035981;28;20067;-51
2021/07/21 08:04:01;;;;;;;16.88;11.70;;;;;;;28.03;50.02;96782.41;5042534;28;20064;-55
2021/07/21 08:06:34;;;;;;;18.65;11.65;;;;;;;29.06;47.60;96778.13;5038711;28;20068;-57
2021/07/21 08:09:03;;;;;;;16.00;11.70;;;;;;;28.89;48.65;96785.50;5039810;28;20071;-56
2021/07/21 08:11:32;;;;;;;16.57;11.07;;;;;;;28.89;45.24;96782.81;5039020;28;20478;-53
2021/07/21 08:14:00;;;;;;;14.35;11.27;;;;;;;28.45;44.66;96785.50;5037561;28;20115;-56
2021/07/21 08:16:30;;;;;;;15.55;11.30;;;;;;;28.26;43.98;96789.53;5040498;28;20076;-57
2021/07/21 08:18:58;;;;;;;13.48;10.52;;;;;;;29.19;44.70;96786.97;5039369;28;20068;-55
2021/07/21 08:21:27;;;;;;;15.82;11.07;;;;;;;29.25;44.54;96792.22;5036539;28;20052;-57
2021/07/21 08:23:55;;;;;;;15.90;11.05;;;;;;;28.56;46.08;96787.28;5037510;28;20475;-57
2021/07/21 08:26:23;;;;;;;12.05;9.98;;;;;;;29.14;41.85;96787.72;5040654;28;20080;-53
2021/07/21 08:28:52;;;;;;;14.50;10.93;;;;;;;27.49;45.60;96784.75;5039360;28;20068;-55
2021/07/21 08:31:21;;;;;;;15.63;11.10;;;;;;;28.93;45.93;96781.22;5034522;28;20057;-57
2021/07/21 08:33:50;;;;;;;12.98;10.05;;;;;;;27.90;43.57;96787.09;5039899;28;20080;-57
2021/07/21 08:36:19;;;;;;;14.73;10.48;;;;;;;28.85;43.22;96787.09;5035042;28;20060;-56
2021/07/21 08:38:50;;;;;;;17.90;11.27;;;;;;;28.91;41.43;96785.28;5043356;28;20072;-55
2021/07/21 08:41:19;;;;;;;14.70;10.18;;;;;;;29.05;42.99;96789.28;5037272;28;20073;-55
2021/07/21 08:43:47;;;;;;;16.35;10.32;;;;;;;29.33;43.05;96793.66;5035139;28;20324;-56
2021/07/21 08:46:16;;;;;;;16.63;10.82;;;;;;;29.01;42.52;96782.69;5033262;28;20076;-57
2021/07/21 08:48:44;;;;;;;15.18;11.00;;;;;;;29.19;43.01;96787.78;5041735;28;20073;-57
2021/07/21 08:51:14;;;;;;;15.43;11.40;;;;;;;29.48;41.16;96784.81;5037820;28;20065;-57
2021/07/21 08:53:42;;;;;;;18.42;11.30;;;;;;;28.94;39.43;96791.03;5040495;28;20065;-54
2021/07/21 08:56:11;;;;;;;14.35;10.10;;;;;;;29.16;39.23;96782.88;5049946;28;20083;-57
2021/07/21 08:58:41;;;;;;;10.68;9.00;;;;;;;29.21;39.01;96782.09;5035344;28;20069;-57
2021/07/21 09:01:09;;;;;;;13.98;9.63;;;;;;;28.37;41.98;96794.84;5037193;28;20057;-57
2021/07/21 09:03:38;;;;;;;17.00;10.43;;;;;;;29.69;39.40;96785.84;5043085;28;20507;-57
2021/07/21 09:06:06;;;;;;;14.60;8.77;;;;;;;29.06;39.11;96793.63;5041214;28;20069;-57
2021/07/21 09:08:36;;;;;;;13.38;9.35;;;;;;;28.87;39.79;96793.06;5034265;28;20085;-54
2021/07/21 09:11:04;;;;;;;14.55;9.27;;;;;;;30.09;37.68;96796.25;5045334;28;20080;-53
2021/07/21 09:13:35;;;;;;;14.20;9.40;;;;;;;29.99;37.52;96790.72;5036788;28;20080;-53
2021/07/21 09:16:22;;;;;;;13.73;9.98;;;;;;;29.27;39.39;96800.91;5042823;28;20048;-54
2021/07/21 09:18:53;;;;;;;12.63;10.00;;;;;;;29.75;38.67;96791.06;5042058;28;20079;-52
2021/07/21 09:21:22;;;;;;;13.20;10.38;;;;;;;29.68;40.28;96793.19;5042344;28;20515;-54
2021/07/21 09:23:54;;;;;;;13.23;9.98;;;;;;;30.34;37.93;96792.91;5045804;28;20065;-55
2021/07/21 09:26:36;;;;;;;14.68;9.98;;;;;;;29.78;40.18;96796.00;5042787;28;20080;-53
2021/07/21 09:29:04;;;;;;;12.70;8.88;;;;;;;29.65;39.05;96788.25;5042129;28;20080;-56
2021/07/21 09:31:34;;;;;;;14.10;10.02;;;;;;;29.70;38.62;96795.66;5043026;28;20699;-51
2021/07/21 09:34:13;;;;;;;15.60;10.27;;;;;;;29.88;40.27;96789.81;5038844;28;20061;-50
2021/07/21 09:36:42;;;;;;;15.18;10.57;;;;;;;30.34;38.57;96792.06;5042059;28;20072;-51
2021/07/21 09:39:12;;;;;;;12.82;10.38;;;;;;;30.62;38.10;96788.97;5040815;28;20060;-51
2021/07/21 09:41:42;;;;;;;14.13;9.93;;;;;;;31.00;38.23;96794.31;5037878;28;21136;-56
2021/07/21 09:44:11;;;;;;;13.77;9.60;;;;;;;31.27;36.32;96792.22;5038920;28;20076;-57
2021/07/21 09:46:39;;;;;;;13.93;8.98;;;;;;;30.16;38.92;96790.56;5039950;28;20073;-57
2021/07/21 09:49:19;;;;;;;16.48;9.88;;;;;;;29.05;39.39;96798.22;5041805;28;20069;-54
2021/07/21 09:51:47;;;;;;;14.27;10.43;;;;;;;29.47;38.98;96800.31;5040573;28;20068;-53
2021/07/21 09:54:19;;;;;;;13.32;10.13;;;;;;;29.43;37.93;96792.94;5038261;28;20083;-54
2021/07/21 09:56:50;;;;;;;12.98;10.13;;;;;;;30.20;36.25;96789.81;5033486;28;20069;-53
2021/07/21 09:59:19;;;;;;;14.27;9.63;;;;;;;30.51;36.96;96788.09;5045546;28;20077;-57
2021/07/21 10:01:48;;;;;;;13.57;10.10;;;;;;;30.60;36.26;96782.16;5045128;28;20061;-55
2021/07/21 10:04:37;;;;;;;14.82;10.82;;;;;;;30.14;37.68;96781.84;5045566;28;21059;-56
2021/07/21 10:07:19;;;;;;;12.73;9.48;;;;;;;30.72;37.70;96785.47;5038843;28;20065;-52
2021/07/21 10:09:50;;;;;;;17.98;11.35;;;;;;;30.13;38.82;96781.03;5035353;28;20084;-53
2021/07/21 10:12:20;;;;;;;13.95;10.30;;;;;;;30.35;38.56;96775.50;5037059;28;20144;-53
2021/07/21 10:14:55;;;;;;;;;;;;;;;30.58;39.20;96784.31;5039931;28;20057;-56
2021/07/21 10:17:23;;;;;;;14.10;10.73;;;;;;;31.07;37.09;96779.38;5040407;28;19963;-55
2021/07/21 10:19:52;;;;;;;14.05;10.68;;;;;;;31.77;38.06;96779.00;5042624;28;20111;-56
2021/07/21 10:22:20;;;;;;;20.10;10.95;;;;;;;31.31;37.02;96784.34;5037343;28;20068;-56
2021/07/21 10:24:50;;;;;;;18.02;10.85;;;;;;;30.87;37.61;96769.25;5038366;28;20065;-57
2021/07/21 10:27:19;;;;;;;16.27;10.77;;;;;;;30.34;36.93;96773.84;5043110;28;20076;-56
2021/07/21 10:29:49;;;;;;;14.73;10.57;;;;;;;31.30;37.79;96774.53;5037683;28;20068;-57
2021/07/21 10:32:18;;;;;;;;;;;;;;;31.74;36.67;96766.72;5041937;28;20110;-56
2021/07/21 10:34:47;;;;;;;15.18;11.27;;;;;;;31.19;36.19;96770.97;5038989;28;20346;-56
2021/07/21 10:37:15;;;;;;;16.30;11.48;;;;;;;30.88;36.92;96772.78;5040093;28;20060;-54
2021/07/21 10:39:44;;;;;;;14.30;10.70;;;;;;;31.70;36.29;96765.63;5035127;28;20068;-57
2021/07/21 10:42:15;;;;;;;13.00;10.43;;;;;;;30.54;37.38;96772.31;5039676;28;20061;-57
2021/07/21 10:44:55;;;;;;;13.75;10.50;;;;;;;30.60;36.37;96779.44;5038202;28;20083;-55
2021/07/21 10:47:25;;;;;;;14.25;10.68;;;;;;;31.25;36.48;96766.31;5039714;28;20494;-56
2021/07/21 10:49:56;;;;;;;14.13;10.55;;;;;;;30.62;37.23;96772.63;5041542;28;20081;-57
2021/07/21 10:55:27;;;;;;;14.27;10.73;;;;;;;31.07;36.71;96770.38;5044795;28;20079;-57
2021/07/21 11:01:02;;;;;;;15.52;10.77;;;;;;;30.77;38.32;96763.75;5043559;28;20065;-54
2021/07/21 11:03:31;;;;;;;14.75;11.15;;;;;;;30.41;36.63;96768.97;5040978;28;20088;-57
2021/07/21 11:06:02;;;;;;;13.70;10.48;;;;;;;30.76;38.32;96764.81;5034826;28;20075;-56
2021/07/21 11:08:31;;;;;;;13.18;10.25;;;;;;;30.97;38.42;96760.25;5042059;28;20084;-54
2021/07/21 11:11:10;;;;;;;13.82;10.23;;;;;;;31.41;38.50;96759.84;5035372;28;20111;-55
2021/07/21 11:13:41;;;;;;;13.38;9.77;;;;;;;30.53;37.57;96757.09;5039396;28;20084;-53
2021/07/21 11:16:38;;;;;;;14.75;10.15;;;;;;;30.96;39.11;96759.44;5043325;28;20296;-51
2021/07/21 11:19:39;;;;;;;14.07;10.93;;;;;;;30.74;36.23;96753.38;5043113;28;20067;-55
2021/07/21 11:22:09;;;;;;;15.43;10.68;;;;;;;31.22;36.12;96756.81;5039843;28;20065;-57
2021/07/21 11:25:01;;;;;;;14.50;10.82;;;;;;;31.63;35.30;96746.81;5044136;28;20068;-54
2021/07/21 11:27:52;;;;;;;16.15;10.88;;;;;;;32.47;35.20;96735.53;5034522;28;20464;-56
2021/07/21 11:30:44;;;;;;;14.55;10.35;;;;;;;32.06;35.90;96738.34;5040503;28;20069;-56
2021/07/21 11:33:55;;;;;;;14.35;11.35;;;;;;;31.74;36.60;96744.88;5040482;28;20060;-56
2021/07/21 11:36:49;;;;;;;14.73;10.70;;;;;;;31.63;35.47;96746.00;5040677;28;20066;-57
2021/07/21 11:39:44;;;;;;;13.63;10.43;;;;;;;31.08;37.06;96751.06;5040216;28;20490;-55